sensor_id;sensor_type;location;lat;lon;timestamp;P1;durP1;ratioP1;P2;durP2;ratioP2
12320;SDS011;6225;52.720;8.276;2023-06-10T00:01:39;12.77;;;4.00;;
12320;SDS011;6225;52.720;8.276;2023-06-10T00:04:24;4.30;;;3.38;;
12320;SDS011;6225;52.720;8.276;2023-06-10T00:07:09;9.85;;;4.05;;
12320;SDS011;6225;52.720;8.276;2023-06-10T00:09:54;8.23;;;3.95;;
12320;SDS011;6225;52.720;8.276;2023-06-10T00:12:39;5.93;;;3.75;;
12320;SDS011;6225;52.720;8.276;2023-06-10T00:15:23;5.15;;;3.65;;
12320;SDS011;6225;52.720;8.276;2023-06-10T00:18:08;5.93;;;3.75;;
12320;SDS011;6225;52.720;8.276;2023-06-10T00:20:53;10.73;;;4.18;;
12320;SDS011;6225;52.720;8.276;2023-06-10T00:23:39;7.82;;;4.15;;
12320;SDS011;6225;52.720;8.276;2023-06-10T00:26:24;8.25;;;3.97;;
12320;SDS011;6225;52.720;8.276;2023-06-10T00:29:09;7.28;;;3.78;;
12320;SDS011;6225;52.720;8.276;2023-06-10T00:31:54;7.35;;;4.18;;
12320;SDS011;6225;52.720;8.276;2023-06-10T00:34:41;7.43;;;3.97;;
12320;SDS011;6225;52.720;8.276;2023-06-10T00:37:25;5.13;;;3.28;;
12320;SDS011;6225;52.720;8.276;2023-06-10T00:40:12;6.00;;;3.80;;
12320;SDS011;6225;52.720;8.276;2023-06-10T00:42:57;7.25;;;3.92;;
12320;SDS011;6225;52.720;8.276;2023-06-10T00:45:42;6.60;;;3.70;;
12320;SDS011;6225;52.720;8.276;2023-06-10T00:48:27;4.60;;;3.70;;
12320;SDS011;6225;52.720;8.276;2023-06-10T00:51:12;7.28;;;3.58;;
12320;SDS011;6225;52.720;8.276;2023-06-10T00:53:56;7.63;;;3.22;;
12320;SDS011;6225;52.720;8.276;2023-06-10T00:56:41;6.93;;;3.55;;
12320;SDS011;6225;52.720;8.276;2023-06-10T00:59:27;7.07;;;3.63;;
12320;SDS011;6225;52.720;8.276;2023-06-10T01:02:12;7.40;;;3.80;;
12320;SDS011;6225;52.720;8.276;2023-06-10T01:04:58;7.20;;;4.03;;
12320;SDS011;6225;52.720;8.276;2023-06-10T01:07:46;6.88;;;3.70;;
12320;SDS011;6225;52.720;8.276;2023-06-10T01:10:35;7.90;;;3.07;;
12320;SDS011;6225;52.720;8.276;2023-06-10T01:13:22;8.00;;;3.20;;
12320;SDS011;6225;52.720;8.276;2023-06-10T01:16:12;9.30;;;3.90;;
12320;SDS011;6225;52.720;8.276;2023-06-10T01:18:57;8.02;;;4.20;;
12320;SDS011;6225;52.720;8.276;2023-06-10T01:21:41;6.80;;;3.63;;
12320;SDS011;6225;52.720;8.276;2023-06-10T01:24:32;5.65;;;3.55;;
12320;SDS011;6225;52.720;8.276;2023-06-10T01:27:17;7.03;;;3.65;;
12320;SDS011;6225;52.720;8.276;2023-06-10T01:30:11;4.28;;;3.63;;
12320;SDS011;6225;52.720;8.276;2023-06-10T01:33:01;4.43;;;3.37;;
12320;SDS011;6225;52.720;8.276;2023-06-10T01:35:49;7.50;;;3.50;;
12320;SDS011;6225;52.720;8.276;2023-06-10T01:38:44;6.23;;;3.27;;
12320;SDS011;6225;52.720;8.276;2023-06-10T01:44:17;4.72;;;3.55;;
12320;SDS011;6225;52.720;8.276;2023-06-10T01:47:05;8.37;;;3.50;;
12320;SDS011;6225;52.720;8.276;2023-06-10T01:49:49;9.77;;;3.70;;
12320;SDS011;6225;52.720;8.276;2023-06-10T01:52:36;6.63;;;3.40;;
12320;SDS011;6225;52.720;8.276;2023-06-10T01:55:23;5.63;;;3.30;;
12320;SDS011;6225;52.720;8.276;2023-06-10T01:58:07;6.97;;;3.40;;
12320;SDS011;6225;52.720;8.276;2023-06-10T02:00:52;9.90;;;3.20;;
12320;SDS011;6225;52.720;8.276;2023-06-10T02:03:37;6.90;;;3.40;;
12320;SDS011;6225;52.720;8.276;2023-06-10T02:06:21;4.43;;;3.27;;
12320;SDS011;6225;52.720;8.276;2023-06-10T02:09:06;5.97;;;3.37;;
12320;SDS011;6225;52.720;8.276;2023-06-10T02:11:50;6.80;;;3.93;;
12320;SDS011;6225;52.720;8.276;2023-06-10T02:14:35;6.03;;;3.40;;
12320;SDS011;6225;52.720;8.276;2023-06-10T02:17:19;9.25;;;4.07;;
12320;SDS011;6225;52.720;8.276;2023-06-10T02:20:05;7.00;;;3.40;;
12320;SDS011;6225;52.720;8.276;2023-06-10T02:22:51;8.03;;;3.23;;
12320;SDS011;6225;52.720;8.276;2023-06-10T02:25:35;9.13;;;3.63;;
12320;SDS011;6225;52.720;8.276;2023-06-10T02:28:20;9.43;;;3.43;;
12320;SDS011;6225;52.720;8.276;2023-06-10T02:31:05;7.03;;;3.40;;
12320;SDS011;6225;52.720;8.276;2023-06-10T02:33:50;8.25;;;4.13;;
12320;SDS011;6225;52.720;8.276;2023-06-10T02:36:35;7.67;;;3.70;;
12320;SDS011;6225;52.720;8.276;2023-06-10T02:39:20;7.30;;;3.70;;
12320;SDS011;6225;52.720;8.276;2023-06-10T02:42:05;7.10;;;3.50;;
12320;SDS011;6225;52.720;8.276;2023-06-10T02:44:50;6.13;;;3.30;;
12320;SDS011;6225;52.720;8.276;2023-06-10T02:47:34;5.17;;;3.33;;
12320;SDS011;6225;52.720;8.276;2023-06-10T02:50:19;8.77;;;4.20;;
12320;SDS011;6225;52.720;8.276;2023-06-10T02:53:04;7.77;;;3.87;;
12320;SDS011;6225;52.720;8.276;2023-06-10T02:55:48;7.87;;;3.50;;
12320;SDS011;6225;52.720;8.276;2023-06-10T02:58:33;7.57;;;3.50;;
12320;SDS011;6225;52.720;8.276;2023-06-10T03:01:17;9.27;;;3.03;;
12320;SDS011;6225;52.720;8.276;2023-06-10T03:04:05;11.25;;;4.43;;
12320;SDS011;6225;52.720;8.276;2023-06-10T03:06:50;7.17;;;4.20;;
12320;SDS011;6225;52.720;8.276;2023-06-10T03:09:35;8.27;;;3.77;;
12320;SDS011;6225;52.720;8.276;2023-06-10T03:12:20;12.90;;;4.10;;
12320;SDS011;6225;52.720;8.276;2023-06-10T03:15:04;7.40;;;3.20;;
12320;SDS011;6225;52.720;8.276;2023-06-10T03:17:49;6.30;;;3.60;;
12320;SDS011;6225;52.720;8.276;2023-06-10T03:20:34;12.30;;;3.60;;
12320;SDS011;6225;52.720;8.276;2023-06-10T03:23:23;7.07;;;3.60;;
12320;SDS011;6225;52.720;8.276;2023-06-10T03:26:07;8.10;;;3.70;;
12320;SDS011;6225;52.720;8.276;2023-06-10T03:28:53;10.93;;;3.90;;
12320;SDS011;6225;52.720;8.276;2023-06-10T03:31:38;8.47;;;3.63;;
12320;SDS011;6225;52.720;8.276;2023-06-10T03:34:23;9.33;;;3.63;;
12320;SDS011;6225;52.720;8.276;2023-06-10T03:37:07;8.35;;;4.68;;
12320;SDS011;6225;52.720;8.276;2023-06-10T03:39:52;11.60;;;4.00;;
12320;SDS011;6225;52.720;8.276;2023-06-10T03:42:37;8.93;;;4.37;;
12320;SDS011;6225;52.720;8.276;2023-06-10T03:45:22;7.97;;;3.70;;
12320;SDS011;6225;52.720;8.276;2023-06-10T03:48:08;6.80;;;3.80;;
12320;SDS011;6225;52.720;8.276;2023-06-10T03:50:52;9.57;;;3.80;;
12320;SDS011;6225;52.720;8.276;2023-06-10T03:53:37;5.93;;;3.47;;
12320;SDS011;6225;52.720;8.276;2023-06-10T03:56:22;7.83;;;4.10;;
12320;SDS011;6225;52.720;8.276;2023-06-10T03:59:06;6.43;;;3.80;;
12320;SDS011;6225;52.720;8.276;2023-06-10T04:01:51;7.47;;;3.50;;
12320;SDS011;6225;52.720;8.276;2023-06-10T04:04:35;9.33;;;4.10;;
12320;SDS011;6225;52.720;8.276;2023-06-10T04:07:21;8.70;;;3.67;;
12320;SDS011;6225;52.720;8.276;2023-06-10T04:10:06;8.00;;;3.90;;
12320;SDS011;6225;52.720;8.276;2023-06-10T04:12:51;11.43;;;4.63;;
12320;SDS011;6225;52.720;8.276;2023-06-10T04:15:36;9.60;;;3.63;;
12320;SDS011;6225;52.720;8.276;2023-06-10T04:18:21;7.00;;;3.50;;
12320;SDS011;6225;52.720;8.276;2023-06-10T04:21:06;6.40;;;3.57;;
12320;SDS011;6225;52.720;8.276;2023-06-10T04:23:50;12.80;;;3.97;;
12320;SDS011;6225;52.720;8.276;2023-06-10T04:26:35;7.30;;;4.43;;
12320;SDS011;6225;52.720;8.276;2023-06-10T04:29:20;7.37;;;4.00;;
12320;SDS011;6225;52.720;8.276;2023-06-10T04:32:05;8.40;;;3.43;;
12320;SDS011;6225;52.720;8.276;2023-06-10T04:34:50;7.83;;;3.67;;
12320;SDS011;6225;52.720;8.276;2023-06-10T04:37:35;7.87;;;3.60;;
12320;SDS011;6225;52.720;8.276;2023-06-10T04:40:19;8.67;;;3.57;;
12320;SDS011;6225;52.720;8.276;2023-06-10T04:43:04;7.03;;;3.90;;
12320;SDS011;6225;52.720;8.276;2023-06-10T04:45:48;9.23;;;4.13;;
12320;SDS011;6225;52.720;8.276;2023-06-10T04:48:33;8.10;;;3.73;;
12320;SDS011;6225;52.720;8.276;2023-06-10T04:51:19;11.10;;;3.73;;
12320;SDS011;6225;52.720;8.276;2023-06-10T04:54:03;9.50;;;3.60;;
12320;SDS011;6225;52.720;8.276;2023-06-10T04:56:49;7.43;;;3.80;;
12320;SDS011;6225;52.720;8.276;2023-06-10T04:59:33;7.47;;;4.37;;
12320;SDS011;6225;52.720;8.276;2023-06-10T05:02:21;5.63;;;3.77;;
12320;SDS011;6225;52.720;8.276;2023-06-10T05:05:08;7.93;;;3.57;;
12320;SDS011;6225;52.720;8.276;2023-06-10T05:07:52;12.23;;;3.80;;
12320;SDS011;6225;52.720;8.276;2023-06-10T05:10:36;10.97;;;4.20;;
12320;SDS011;6225;52.720;8.276;2023-06-10T05:13:21;10.00;;;4.20;;
12320;SDS011;6225;52.720;8.276;2023-06-10T05:16:06;10.97;;;4.60;;
12320;SDS011;6225;52.720;8.276;2023-06-10T05:18:51;6.77;;;3.70;;
12320;SDS011;6225;52.720;8.276;2023-06-10T05:21:35;9.03;;;4.00;;
12320;SDS011;6225;52.720;8.276;2023-06-10T05:24:20;11.67;;;4.13;;
12320;SDS011;6225;52.720;8.276;2023-06-10T05:27:05;8.30;;;4.17;;
12320;SDS011;6225;52.720;8.276;2023-06-10T05:29:50;9.63;;;3.90;;
12320;SDS011;6225;52.720;8.276;2023-06-10T05:32:35;7.57;;;4.03;;
12320;SDS011;6225;52.720;8.276;2023-06-10T05:35:20;9.23;;;3.93;;
12320;SDS011;6225;52.720;8.276;2023-06-10T05:38:05;5.47;;;3.87;;
12320;SDS011;6225;52.720;8.276;2023-06-10T05:40:50;8.70;;;4.13;;
12320;SDS011;6225;52.720;8.276;2023-06-10T05:43:35;8.00;;;4.57;;
12320;SDS011;6225;52.720;8.276;2023-06-10T05:46:20;7.40;;;4.30;;
12320;SDS011;6225;52.720;8.276;2023-06-10T05:49:05;6.53;;;3.70;;
12320;SDS011;6225;52.720;8.276;2023-06-10T05:51:50;7.20;;;4.13;;
12320;SDS011;6225;52.720;8.276;2023-06-10T05:54:36;9.80;;;4.13;;
12320;SDS011;6225;52.720;8.276;2023-06-10T05:57:21;8.30;;;4.40;;
12320;SDS011;6225;52.720;8.276;2023-06-10T06:00:07;8.57;;;4.20;;
12320;SDS011;6225;52.720;8.276;2023-06-10T06:02:53;9.93;;;4.73;;
12320;SDS011;6225;52.720;8.276;2023-06-10T06:05:40;6.33;;;4.07;;
12320;SDS011;6225;52.720;8.276;2023-06-10T06:08:26;6.93;;;4.30;;
12320;SDS011;6225;52.720;8.276;2023-06-10T06:11:11;10.70;;;4.70;;
12320;SDS011;6225;52.720;8.276;2023-06-10T06:13:57;10.43;;;4.80;;
12320;SDS011;6225;52.720;8.276;2023-06-10T06:16:43;6.73;;;3.97;;
12320;SDS011;6225;52.720;8.276;2023-06-10T06:19:29;7.63;;;4.13;;
12320;SDS011;6225;52.720;8.276;2023-06-10T06:22:14;11.03;;;4.73;;
12320;SDS011;6225;52.720;8.276;2023-06-10T06:24:58;7.67;;;4.57;;
12320;SDS011;6225;52.720;8.276;2023-06-10T06:27:43;7.67;;;4.70;;
12320;SDS011;6225;52.720;8.276;2023-06-10T06:30:27;6.93;;;4.17;;
12320;SDS011;6225;52.720;8.276;2023-06-10T06:33:12;7.10;;;4.30;;
12320;SDS011;6225;52.720;8.276;2023-06-10T06:35:57;10.23;;;4.67;;
12320;SDS011;6225;52.720;8.276;2023-06-10T06:38:44;6.97;;;4.20;;
12320;SDS011;6225;52.720;8.276;2023-06-10T06:41:28;9.33;;;4.50;;
12320;SDS011;6225;52.720;8.276;2023-06-10T06:44:13;6.83;;;4.20;;
12320;SDS011;6225;52.720;8.276;2023-06-10T06:46:57;7.03;;;4.63;;
12320;SDS011;6225;52.720;8.276;2023-06-10T06:49:42;6.43;;;4.60;;
12320;SDS011;6225;52.720;8.276;2023-06-10T06:52:26;12.50;;;5.37;;
12320;SDS011;6225;52.720;8.276;2023-06-10T06:55:11;11.93;;;5.13;;
12320;SDS011;6225;52.720;8.276;2023-06-10T06:57:55;9.17;;;5.57;;
12320;SDS011;6225;52.720;8.276;2023-06-10T07:00:40;9.47;;;4.87;;
12320;SDS011;6225;52.720;8.276;2023-06-10T07:03:25;8.77;;;5.03;;
12320;SDS011;6225;52.720;8.276;2023-06-10T07:06:09;12.03;;;5.50;;
12320;SDS011;6225;52.720;8.276;2023-06-10T07:08:54;6.90;;;4.77;;
12320;SDS011;6225;52.720;8.276;2023-06-10T07:11:38;8.50;;;5.67;;
12320;SDS011;6225;52.720;8.276;2023-06-10T07:14:23;9.13;;;5.60;;
12320;SDS011;6225;52.720;8.276;2023-06-10T07:17:07;10.37;;;5.50;;
12320;SDS011;6225;52.720;8.276;2023-06-10T07:19:52;9.87;;;5.70;;
12320;SDS011;6225;52.720;8.276;2023-06-10T07:22:41;7.80;;;5.10;;
12320;SDS011;6225;52.720;8.276;2023-06-10T07:25:25;9.43;;;4.87;;
12320;SDS011;6225;52.720;8.276;2023-06-10T07:28:10;9.47;;;6.10;;
12320;SDS011;6225;52.720;8.276;2023-06-10T07:30:54;8.67;;;5.60;;
12320;SDS011;6225;52.720;8.276;2023-06-10T07:33:39;8.47;;;5.20;;
12320;SDS011;6225;52.720;8.276;2023-06-10T07:36:23;11.33;;;6.03;;
12320;SDS011;6225;52.720;8.276;2023-06-10T07:39:10;10.17;;;5.23;;
12320;SDS011;6225;52.720;8.276;2023-06-10T07:41:55;7.07;;;5.33;;
12320;SDS011;6225;52.720;8.276;2023-06-10T07:44:40;7.30;;;5.63;;
12320;SDS011;6225;52.720;8.276;2023-06-10T07:47:25;10.33;;;5.83;;
12320;SDS011;6225;52.720;8.276;2023-06-10T07:50:10;11.10;;;5.60;;
12320;SDS011;6225;52.720;8.276;2023-06-10T07:52:54;12.53;;;5.73;;
12320;SDS011;6225;52.720;8.276;2023-06-10T07:55:39;10.57;;;5.67;;
12320;SDS011;6225;52.720;8.276;2023-06-10T07:58:23;7.53;;;5.60;;
12320;SDS011;6225;52.720;8.276;2023-06-10T08:01:08;9.33;;;5.63;;
12320;SDS011;6225;52.720;8.276;2023-06-10T08:03:53;10.93;;;6.17;;
12320;SDS011;6225;52.720;8.276;2023-06-10T08:06:37;9.07;;;5.53;;
12320;SDS011;6225;52.720;8.276;2023-06-10T08:09:22;8.57;;;5.63;;
12320;SDS011;6225;52.720;8.276;2023-06-10T08:12:07;9.30;;;5.73;;
12320;SDS011;6225;52.720;8.276;2023-06-10T08:14:51;10.50;;;6.50;;
12320;SDS011;6225;52.720;8.276;2023-06-10T08:17:36;10.63;;;5.83;;
12320;SDS011;6225;52.720;8.276;2023-06-10T08:20:22;7.03;;;4.90;;
12320;SDS011;6225;52.720;8.276;2023-06-10T08:23:06;10.23;;;5.40;;
12320;SDS011;6225;52.720;8.276;2023-06-10T08:25:51;8.55;;;5.00;;
12320;SDS011;6225;52.720;8.276;2023-06-10T08:28:35;7.83;;;5.20;;
12320;SDS011;6225;52.720;8.276;2023-06-10T08:31:20;7.17;;;4.90;;
12320;SDS011;6225;52.720;8.276;2023-06-10T08:34:04;11.43;;;5.47;;
12320;SDS011;6225;52.720;8.276;2023-06-10T08:36:49;7.50;;;4.93;;
12320;SDS011;6225;52.720;8.276;2023-06-10T08:39:36;9.95;;;5.00;;
12320;SDS011;6225;52.720;8.276;2023-06-10T08:42:22;7.95;;;4.80;;
12320;SDS011;6225;52.720;8.276;2023-06-10T08:45:07;6.73;;;4.43;;
12320;SDS011;6225;52.720;8.276;2023-06-10T08:47:53;8.05;;;4.68;;
12320;SDS011;6225;52.720;8.276;2023-06-10T08:50:41;6.65;;;4.22;;
12320;SDS011;6225;52.720;8.276;2023-06-10T08:53:26;10.30;;;4.50;;
12320;SDS011;6225;52.720;8.276;2023-06-10T08:56:11;6.20;;;4.75;;
12320;SDS011;6225;52.720;8.276;2023-06-10T08:58:56;6.35;;;3.90;;
12320;SDS011;6225;52.720;8.276;2023-06-10T09:01:42;8.50;;;4.25;;
12320;SDS011;6225;52.720;8.276;2023-06-10T09:04:27;6.93;;;3.90;;
12320;SDS011;6225;52.720;8.276;2023-06-10T09:07:12;6.93;;;4.25;;
12320;SDS011;6225;52.720;8.276;2023-06-10T09:09:58;12.80;;;3.92;;
12320;SDS011;6225;52.720;8.276;2023-06-10T09:12:43;8.80;;;4.75;;
12320;SDS011;6225;52.720;8.276;2023-06-10T09:15:28;9.68;;;4.47;;
12320;SDS011;6225;52.720;8.276;2023-06-10T09:18:13;5.97;;;3.65;;
12320;SDS011;6225;52.720;8.276;2023-06-10T09:20:57;5.53;;;4.13;;
12320;SDS011;6225;52.720;8.276;2023-06-10T09:23:42;5.50;;;3.75;;
12320;SDS011;6225;52.720;8.276;2023-06-10T09:26:28;6.80;;;3.95;;
12320;SDS011;6225;52.720;8.276;2023-06-10T09:29:13;10.70;;;4.40;;
12320;SDS011;6225;52.720;8.276;2023-06-10T09:31:58;5.00;;;3.63;;
12320;SDS011;6225;52.720;8.276;2023-06-10T09:34:42;9.45;;;3.88;;
12320;SDS011;6225;52.720;8.276;2023-06-10T09:37:27;9.05;;;4.85;;
12320;SDS011;6225;52.720;8.276;2023-06-10T09:40:12;7.45;;;4.03;;
12320;SDS011;6225;52.720;8.276;2023-06-10T09:42:58;8.70;;;4.30;;
12320;SDS011;6225;52.720;8.276;2023-06-10T09:45:43;6.53;;;3.90;;
12320;SDS011;6225;52.720;8.276;2023-06-10T09:48:27;7.25;;;3.75;;
12320;SDS011;6225;52.720;8.276;2023-06-10T09:51:13;6.88;;;3.72;;
12320;SDS011;6225;52.720;8.276;2023-06-10T09:53:58;3.63;;;3.13;;
12320;SDS011;6225;52.720;8.276;2023-06-10T09:56:43;10.13;;;3.78;;
12320;SDS011;6225;52.720;8.276;2023-06-10T09:59:30;4.35;;;3.42;;
12320;SDS011;6225;52.720;8.276;2023-06-10T10:02:16;4.70;;;3.33;;
12320;SDS011;6225;52.720;8.276;2023-06-10T10:05:02;4.85;;;3.35;;
12320;SDS011;6225;52.720;8.276;2023-06-10T10:07:50;6.85;;;3.25;;
12320;SDS011;6225;52.720;8.276;2023-06-10T10:10:35;7.93;;;3.60;;
12320;SDS011;6225;52.720;8.276;2023-06-10T10:13:20;7.88;;;3.38;;
12320;SDS011;6225;52.720;8.276;2023-06-10T10:16:06;5.32;;;3.30;;
12320;SDS011;6225;52.720;8.276;2023-06-10T10:18:55;6.30;;;3.25;;
12320;SDS011;6225;52.720;8.276;2023-06-10T10:21:44;5.85;;;3.70;;
12320;SDS011;6225;52.720;8.276;2023-06-10T10:24:51;5.55;;;3.50;;
12320;SDS011;6225;52.720;8.276;2023-06-10T10:27:40;5.82;;;3.03;;
12320;SDS011;6225;52.720;8.276;2023-06-10T10:30:28;4.72;;;3.53;;
12320;SDS011;6225;52.720;8.276;2023-06-10T10:33:19;5.68;;;3.63;;
12320;SDS011;6225;52.720;8.276;2023-06-10T10:36:06;8.75;;;3.50;;
12320;SDS011;6225;52.720;8.276;2023-06-10T10:38:51;5.13;;;3.65;;
12320;SDS011;6225;52.720;8.276;2023-06-10T10:41:36;6.72;;;3.35;;
12320;SDS011;6225;52.720;8.276;2023-06-10T10:44:21;5.57;;;3.17;;
12320;SDS011;6225;52.720;8.276;2023-06-10T10:47:09;4.75;;;3.28;;
12320;SDS011;6225;52.720;8.276;2023-06-10T10:49:54;5.85;;;3.50;;
12320;SDS011;6225;52.720;8.276;2023-06-10T10:52:46;4.13;;;3.20;;
12320;SDS011;6225;52.720;8.276;2023-06-10T10:55:35;6.07;;;3.50;;
12320;SDS011;6225;52.720;8.276;2023-06-10T10:58:24;7.50;;;3.00;;
12320;SDS011;6225;52.720;8.276;2023-06-10T11:01:12;7.97;;;3.40;;
12320;SDS011;6225;52.720;8.276;2023-06-10T11:03:58;3.55;;;2.92;;
12320;SDS011;6225;52.720;8.276;2023-06-10T11:06:51;4.50;;;2.97;;
12320;SDS011;6225;52.720;8.276;2023-06-10T11:09:36;3.97;;;2.92;;
12320;SDS011;6225;52.720;8.276;2023-06-10T11:12:24;4.50;;;2.55;;
12320;SDS011;6225;52.720;8.276;2023-06-10T11:15:09;5.63;;;2.78;;
12320;SDS011;6225;52.720;8.276;2023-06-10T11:21:01;3.47;;;2.40;;
12320;SDS011;6225;52.720;8.276;2023-06-10T11:23:47;4.13;;;2.30;;
12320;SDS011;6225;52.720;8.276;2023-06-10T11:26:34;4.70;;;2.83;;
12320;SDS011;6225;52.720;8.276;2023-06-10T11:29:18;6.88;;;2.42;;
12320;SDS011;6225;52.720;8.276;2023-06-10T11:32:04;4.75;;;2.47;;
12320;SDS011;6225;52.720;8.276;2023-06-10T11:34:52;8.38;;;2.67;;
12320;SDS011;6225;52.720;8.276;2023-06-10T11:37:37;4.25;;;2.50;;
12320;SDS011;6225;52.720;8.276;2023-06-10T11:40:21;5.93;;;2.63;;
12320;SDS011;6225;52.720;8.276;2023-06-10T11:43:06;2.33;;;2.10;;
12320;SDS011;6225;52.720;8.276;2023-06-10T11:45:53;2.85;;;2.53;;
12320;SDS011;6225;52.720;8.276;2023-06-10T11:48:39;4.75;;;2.40;;
12320;SDS011;6225;52.720;8.276;2023-06-10T11:51:32;7.10;;;2.80;;
12320;SDS011;6225;52.720;8.276;2023-06-10T11:54:18;5.55;;;2.63;;
12320;SDS011;6225;52.720;8.276;2023-06-10T11:57:02;2.53;;;2.33;;
12320;SDS011;6225;52.720;8.276;2023-06-10T11:59:47;6.03;;;2.67;;
12320;SDS011;6225;52.720;8.276;2023-06-10T12:02:32;2.58;;;2.20;;
12320;SDS011;6225;52.720;8.276;2023-06-10T12:05:16;2.53;;;2.15;;
12320;SDS011;6225;52.720;8.276;2023-06-10T12:08:09;3.85;;;2.38;;
12320;SDS011;6225;52.720;8.276;2023-06-10T12:10:55;2.97;;;2.45;;
12320;SDS011;6225;52.720;8.276;2023-06-10T12:13:45;4.45;;;2.58;;
12320;SDS011;6225;52.720;8.276;2023-06-10T12:16:31;5.05;;;2.50;;
12320;SDS011;6225;52.720;8.276;2023-06-10T12:19:17;5.25;;;2.45;;
12320;SDS011;6225;52.720;8.276;2023-06-10T12:22:01;4.63;;;2.22;;
12320;SDS011;6225;52.720;8.276;2023-06-10T12:24:57;4.40;;;2.35;;
12320;SDS011;6225;52.720;8.276;2023-06-10T12:27:52;5.35;;;2.42;;
12320;SDS011;6225;52.720;8.276;2023-06-10T12:30:37;7.38;;;2.63;;
12320;SDS011;6225;52.720;8.276;2023-06-10T12:33:21;3.78;;;2.25;;
12320;SDS011;6225;52.720;8.276;2023-06-10T12:36:06;3.95;;;2.40;;
12320;SDS011;6225;52.720;8.276;2023-06-10T12:39:03;2.95;;;2.40;;
12320;SDS011;6225;52.720;8.276;2023-06-10T12:41:48;9.07;;;2.40;;
12320;SDS011;6225;52.720;8.276;2023-06-10T12:44:34;3.80;;;2.33;;
12320;SDS011;6225;52.720;8.276;2023-06-10T12:47:19;4.72;;;2.47;;
12320;SDS011;6225;52.720;8.276;2023-06-10T12:50:04;4.00;;;2.80;;
12320;SDS011;6225;52.720;8.276;2023-06-10T12:52:49;3.15;;;2.78;;
12320;SDS011;6225;52.720;8.276;2023-06-10T12:55:34;4.18;;;2.72;;
12320;SDS011;6225;52.720;8.276;2023-06-10T12:58:19;5.47;;;2.70;;
12320;SDS011;6225;52.720;8.276;2023-06-10T13:01:04;4.13;;;2.50;;
12320;SDS011;6225;52.720;8.276;2023-06-10T13:03:50;4.03;;;2.40;;
12320;SDS011;6225;52.720;8.276;2023-06-10T13:06:37;5.20;;;2.55;;
12320;SDS011;6225;52.720;8.276;2023-06-10T13:09:22;4.57;;;2.60;;
12320;SDS011;6225;52.720;8.276;2023-06-10T13:12:07;13.95;;;2.85;;
12320;SDS011;6225;52.720;8.276;2023-06-10T13:14:52;5.38;;;2.40;;
12320;SDS011;6225;52.720;8.276;2023-06-10T13:17:37;5.15;;;2.80;;
12320;SDS011;6225;52.720;8.276;2023-06-10T13:20:22;5.22;;;2.53;;
12320;SDS011;6225;52.720;8.276;2023-06-10T13:23:07;5.43;;;2.40;;
12320;SDS011;6225;52.720;8.276;2023-06-10T13:25:51;2.72;;;2.22;;
12320;SDS011;6225;52.720;8.276;2023-06-10T13:28:36;3.38;;;2.50;;
12320;SDS011;6225;52.720;8.276;2023-06-10T13:31:22;4.30;;;2.60;;
12320;SDS011;6225;52.720;8.276;2023-06-10T13:34:06;2.83;;;2.55;;
12320;SDS011;6225;52.720;8.276;2023-06-10T13:36:51;4.90;;;2.33;;
12320;SDS011;6225;52.720;8.276;2023-06-10T13:39:36;3.75;;;2.33;;
12320;SDS011;6225;52.720;8.276;2023-06-10T13:42:20;5.47;;;2.83;;
12320;SDS011;6225;52.720;8.276;2023-06-10T13:45:05;5.18;;;2.70;;
12320;SDS011;6225;52.720;8.276;2023-06-10T13:47:50;4.68;;;2.78;;
12320;SDS011;6225;52.720;8.276;2023-06-10T13:50:35;3.35;;;2.50;;
12320;SDS011;6225;52.720;8.276;2023-06-10T13:53:19;5.88;;;2.92;;
12320;SDS011;6225;52.720;8.276;2023-06-10T13:56:05;4.82;;;2.70;;
12320;SDS011;6225;52.720;8.276;2023-06-10T13:58:49;4.93;;;2.70;;
12320;SDS011;6225;52.720;8.276;2023-06-10T14:01:34;5.10;;;2.55;;
12320;SDS011;6225;52.720;8.276;2023-06-10T14:04:18;3.55;;;2.45;;
12320;SDS011;6225;52.720;8.276;2023-06-10T14:07:03;3.95;;;2.90;;
12320;SDS011;6225;52.720;8.276;2023-06-10T14:09:48;4.18;;;2.50;;
12320;SDS011;6225;52.720;8.276;2023-06-10T14:12:34;3.58;;;2.70;;
12320;SDS011;6225;52.720;8.276;2023-06-10T14:15:19;4.25;;;2.65;;
12320;SDS011;6225;52.720;8.276;2023-06-10T14:18:04;5.00;;;2.75;;
12320;SDS011;6225;52.720;8.276;2023-06-10T14:20:49;6.00;;;2.55;;
12320;SDS011;6225;52.720;8.276;2023-06-10T14:23:34;4.30;;;2.60;;
12320;SDS011;6225;52.720;8.276;2023-06-10T14:26:19;3.13;;;2.58;;
12320;SDS011;6225;52.720;8.276;2023-06-10T14:29:05;4.03;;;2.38;;
12320;SDS011;6225;52.720;8.276;2023-06-10T14:31:50;5.20;;;2.83;;
12320;SDS011;6225;52.720;8.276;2023-06-10T14:34:35;5.20;;;2.80;;
12320;SDS011;6225;52.720;8.276;2023-06-10T14:37:19;3.72;;;2.83;;
12320;SDS011;6225;52.720;8.276;2023-06-10T14:40:04;3.92;;;2.95;;
12320;SDS011;6225;52.720;8.276;2023-06-10T14:42:49;6.35;;;3.00;;
12320;SDS011;6225;52.720;8.276;2023-06-10T14:45:34;6.15;;;3.15;;
12320;SDS011;6225;52.720;8.276;2023-06-10T14:48:18;5.05;;;3.13;;
12320;SDS011;6225;52.720;8.276;2023-06-10T14:51:03;5.32;;;3.00;;
12320;SDS011;6225;52.720;8.276;2023-06-10T14:53:47;3.70;;;3.10;;
12320;SDS011;6225;52.720;8.276;2023-06-10T14:56:32;3.22;;;2.92;;
12320;SDS011;6225;52.720;8.276;2023-06-10T14:59:16;3.40;;;3.10;;
12320;SDS011;6225;52.720;8.276;2023-06-10T15:02:01;4.18;;;3.03;;
12320;SDS011;6225;52.720;8.276;2023-06-10T15:04:45;5.70;;;3.40;;
12320;SDS011;6225;52.720;8.276;2023-06-10T15:07:30;3.60;;;3.08;;
12320;SDS011;6225;52.720;8.276;2023-06-10T15:10:14;5.32;;;3.20;;
12320;SDS011;6225;52.720;8.276;2023-06-10T15:12:59;5.93;;;3.50;;
12320;SDS011;6225;52.720;8.276;2023-06-10T15:15:44;4.55;;;3.42;;
12320;SDS011;6225;52.720;8.276;2023-06-10T15:18:29;4.55;;;4.05;;
12320;SDS011;6225;52.720;8.276;2023-06-10T15:21:13;6.40;;;3.72;;
12320;SDS011;6225;52.720;8.276;2023-06-10T15:23:58;6.43;;;3.55;;
12320;SDS011;6225;52.720;8.276;2023-06-10T15:26:42;5.18;;;3.90;;
12320;SDS011;6225;52.720;8.276;2023-06-10T15:29:27;4.00;;;3.60;;
12320;SDS011;6225;52.720;8.276;2023-06-10T15:32:12;5.43;;;3.90;;
12320;SDS011;6225;52.720;8.276;2023-06-10T15:34:56;5.68;;;3.17;;
12320;SDS011;6225;52.720;8.276;2023-06-10T15:37:40;9.80;;;6.13;;
12320;SDS011;6225;52.720;8.276;2023-06-10T15:40:25;7.18;;;3.90;;
12320;SDS011;6225;52.720;8.276;2023-06-10T15:43:09;6.93;;;5.45;;
12320;SDS011;6225;52.720;8.276;2023-06-10T15:45:54;6.70;;;3.80;;
12320;SDS011;6225;52.720;8.276;2023-06-10T15:48:39;5.82;;;3.88;;
12320;SDS011;6225;52.720;8.276;2023-06-10T15:51:23;4.70;;;3.40;;
12320;SDS011;6225;52.720;8.276;2023-06-10T15:54:08;6.45;;;3.80;;
12320;SDS011;6225;52.720;8.276;2023-06-10T15:56:53;5.50;;;3.72;;
12320;SDS011;6225;52.720;8.276;2023-06-10T15:59:37;7.68;;;3.70;;
12320;SDS011;6225;52.720;8.276;2023-06-10T16:02:21;6.35;;;3.60;;
12320;SDS011;6225;52.720;8.276;2023-06-10T16:05:06;4.18;;;3.60;;
12320;SDS011;6225;52.720;8.276;2023-06-10T16:07:51;5.78;;;3.20;;
12320;SDS011;6225;52.720;8.276;2023-06-10T16:10:36;4.97;;;3.78;;
12320;SDS011;6225;52.720;8.276;2023-06-10T16:13:20;5.45;;;3.83;;
12320;SDS011;6225;52.720;8.276;2023-06-10T16:16:05;4.72;;;3.65;;
12320;SDS011;6225;52.720;8.276;2023-06-10T16:18:50;3.72;;;3.35;;
12320;SDS011;6225;52.720;8.276;2023-06-10T16:21:34;5.00;;;3.72;;
12320;SDS011;6225;52.720;8.276;2023-06-10T16:24:20;6.22;;;3.72;;
12320;SDS011;6225;52.720;8.276;2023-06-10T16:27:05;7.30;;;3.97;;
12320;SDS011;6225;52.720;8.276;2023-06-10T16:29:51;5.97;;;3.90;;
12320;SDS011;6225;52.720;8.276;2023-06-10T16:32:35;4.07;;;3.67;;
12320;SDS011;6225;52.720;8.276;2023-06-10T16:35:20;3.88;;;3.40;;
12320;SDS011;6225;52.720;8.276;2023-06-10T16:38:05;5.00;;;3.70;;
12320;SDS011;6225;52.720;8.276;2023-06-10T16:40:49;5.78;;;3.80;;
12320;SDS011;6225;52.720;8.276;2023-06-10T16:43:34;6.05;;;3.55;;
12320;SDS011;6225;52.720;8.276;2023-06-10T16:46:18;5.60;;;3.83;;
12320;SDS011;6225;52.720;8.276;2023-06-10T16:49:05;6.45;;;4.13;;
12320;SDS011;6225;52.720;8.276;2023-06-10T16:51:49;5.05;;;4.22;;
12320;SDS011;6225;52.720;8.276;2023-06-10T16:54:34;5.80;;;4.00;;
12320;SDS011;6225;52.720;8.276;2023-06-10T16:57:19;6.10;;;4.00;;